createdAt,value
2022-11-05T00:00:41.082Z,6.73
2022-11-05T00:03:27.427Z,6.70
2022-11-05T00:06:12.761Z,6.66
2022-11-05T00:08:59.762Z,6.61
2022-11-05T00:11:46.950Z,6.56
2022-11-05T00:14:32.780Z,6.52
2022-11-05T00:16:59.828Z,6.46
2022-11-05T00:19:26.650Z,6.43
2022-11-05T00:22:12.092Z,6.38
2022-11-05T00:24:57.635Z,6.32
2022-11-05T00:27:24.525Z,6.28
2022-11-05T00:29:51.488Z,6.24
2022-11-05T00:32:18.279Z,6.19
2022-11-05T00:34:45.138Z,6.15
2022-11-05T00:37:11.952Z,6.10
2022-11-05T00:39:38.814Z,6.05
2022-11-05T00:42:24.140Z,6.00
2022-11-05T00:45:02.880Z,5.96
2022-11-05T00:47:49.632Z,5.92
2022-11-05T00:50:17.222Z,5.87
2022-11-05T00:52:56.084Z,5.85
2022-11-05T00:55:41.163Z,5.85
2022-11-05T00:58:14.010Z,5.85
2022-11-05T01:00:43.458Z,5.86
2022-11-05T01:03:13.496Z,5.85
2022-11-05T01:05:52.080Z,5.85
2022-11-05T01:08:20.832Z,5.83
2022-11-05T01:10:53.382Z,5.79
2022-11-05T01:13:22.477Z,5.79
2022-11-05T01:15:51.141Z,5.76
2022-11-05T01:18:19.391Z,5.74
2022-11-05T01:20:47.123Z,5.73
2022-11-05T01:23:14.266Z,5.73
2022-11-05T01:25:43.291Z,5.71
2022-11-05T01:28:10.756Z,5.68
2022-11-05T01:30:38.259Z,5.63
2022-11-05T01:33:05.488Z,5.60
2022-11-05T01:35:32.915Z,5.55
2022-11-05T01:38:00.001Z,5.52
2022-11-05T01:40:26.903Z,5.51
2022-11-05T01:42:53.794Z,5.47
2022-11-05T01:45:29.943Z,5.48
2022-11-05T01:48:14.363Z,5.45
2022-11-05T01:50:47.641Z,5.44
2022-11-05T01:53:30.972Z,5.43
2022-11-05T01:56:07.715Z,5.42
2022-11-05T01:58:41.924Z,5.37
2022-11-05T02:01:08.922Z,5.36
2022-11-05T02:03:36.393Z,5.35
2022-11-05T02:06:04.431Z,5.34
2022-11-05T02:08:54.286Z,5.35
2022-11-05T02:11:21.332Z,5.34
2022-11-05T02:13:49.264Z,5.33
2022-11-05T02:16:24.916Z,5.32
2022-11-05T02:19:14.709Z,5.30
2022-11-05T02:22:07.867Z,5.30
2022-11-05T02:24:47.830Z,5.29
2022-11-05T02:27:36.690Z,5.27
2022-11-05T02:30:26.350Z,5.30
2022-11-05T02:33:13.426Z,5.28
2022-11-05T02:36:02.334Z,5.28
2022-11-05T02:38:57.206Z,5.26
2022-11-05T02:41:51.016Z,5.24
2022-11-05T02:44:46.531Z,5.22
2022-11-05T02:47:17.989Z,5.20
2022-11-05T02:49:54.259Z,5.18
2022-11-05T02:52:37.070Z,5.18
2022-11-05T02:55:23.946Z,5.15
2022-11-05T02:57:50.925Z,5.16
2022-11-05T03:00:56.607Z,5.15
2022-11-05T03:03:28.854Z,5.16
2022-11-05T03:06:37.599Z,5.14
2022-11-05T03:09:31.115Z,5.12
2022-11-05T03:12:19.104Z,5.07
2022-11-05T03:14:46.042Z,5.04
2022-11-05T03:17:33.802Z,4.99
2022-11-05T03:20:10.738Z,4.95
2022-11-05T03:23:01.380Z,4.93
2022-11-05T03:25:31.739Z,4.89
2022-11-05T03:28:03.985Z,4.85
2022-11-05T03:30:33.890Z,4.82
2022-11-05T03:33:06.677Z,4.78
2022-11-05T03:35:40.480Z,4.76
2022-11-05T03:38:12.854Z,4.76
2022-11-05T03:40:42.750Z,4.78
2022-11-05T03:43:09.987Z,4.77
2022-11-05T03:46:01.142Z,4.75
2022-11-05T03:48:30.971Z,4.74
2022-11-05T03:51:07.357Z,4.73
2022-11-05T03:53:43.753Z,4.72
2022-11-05T03:56:22.278Z,4.70
2022-11-05T03:58:53.378Z,4.68
2022-11-05T04:01:24.086Z,4.66
2022-11-05T04:03:51.050Z,4.67
2022-11-05T04:06:36.473Z,4.69
2022-11-05T04:09:21.944Z,4.71
2022-11-05T04:12:07.336Z,4.68
2022-11-05T04:14:34.139Z,4.68
2022-11-05T04:17:06.822Z,4.68
2022-11-05T04:19:53.675Z,4.69
2022-11-05T04:22:39.877Z,4.68
2022-11-05T04:25:07.054Z,4.69
2022-11-05T04:27:34.224Z,4.72
2022-11-05T04:30:19.720Z,4.74
2022-11-05T04:32:59.956Z,4.79
2022-11-05T04:35:30.133Z,4.84
2022-11-05T04:37:57.039Z,4.90
2022-11-05T04:40:24.338Z,4.92
2022-11-05T04:42:51.262Z,4.93
2022-11-05T04:45:18.059Z,4.93
2022-11-05T04:47:44.898Z,4.95
2022-11-05T04:50:13.311Z,4.94
2022-11-05T04:52:40.839Z,4.98
2022-11-05T04:55:08.233Z,4.99
2022-11-05T04:57:35.163Z,5.00
2022-11-05T05:00:02.480Z,5.02
2022-11-05T05:02:29.379Z,5.04
2022-11-05T05:04:56.249Z,5.07
2022-11-05T05:07:23.121Z,5.10
2022-11-05T05:09:50.269Z,5.14
2022-11-05T05:12:17.255Z,5.13
2022-11-05T05:14:43.993Z,5.13
2022-11-05T05:17:10.788Z,5.17
2022-11-05T05:19:57.662Z,5.22
2022-11-05T05:22:24.494Z,5.28
2022-11-05T05:24:52.883Z,5.33
2022-11-05T05:27:20.907Z,5.37
2022-11-05T05:29:47.652Z,5.40
2022-11-05T05:32:14.673Z,5.39
2022-11-05T05:34:41.518Z,5.38
2022-11-05T05:37:08.476Z,5.34
2022-11-05T05:39:35.332Z,5.32
2022-11-05T05:42:02.256Z,5.29
2022-11-05T05:44:29.045Z,5.26
2022-11-05T05:46:55.907Z,5.21
2022-11-05T05:49:22.787Z,5.19
2022-11-05T05:51:49.933Z,5.16
2022-11-05T05:54:16.935Z,5.13
2022-11-05T05:56:44.537Z,5.12
2022-11-05T05:59:12.334Z,5.09
2022-11-05T06:01:39.342Z,5.10
2022-11-05T06:04:06.431Z,5.08
2022-11-05T06:06:33.497Z,5.08
2022-11-05T06:09:00.397Z,5.05
2022-11-05T06:11:27.469Z,5.03
2022-11-05T06:13:54.419Z,5.03
2022-11-05T06:16:21.430Z,5.01
2022-11-05T06:18:48.395Z,4.98
2022-11-05T06:21:17.402Z,4.94
2022-11-05T06:23:45.759Z,4.93
2022-11-05T06:26:16.025Z,4.93
2022-11-05T06:28:43.378Z,4.92
2022-11-05T06:31:11.432Z,4.90
2022-11-05T06:33:38.498Z,4.93
2022-11-05T06:36:07.231Z,4.92
2022-11-05T06:38:36.111Z,4.95
2022-11-05T06:41:09.839Z,4.96
2022-11-05T06:43:37.615Z,5.01
2022-11-05T06:46:05.083Z,5.07
2022-11-05T06:48:32.113Z,5.11
2022-11-05T06:50:58.915Z,5.16
2022-11-05T06:53:26.303Z,5.19
2022-11-05T06:55:53.164Z,5.23
2022-11-05T06:58:20.322Z,5.25
2022-11-05T07:00:48.277Z,5.26
2022-11-05T07:03:15.388Z,5.28
2022-11-05T07:05:48.795Z,5.30
2022-11-05T07:08:16.047Z,5.30
2022-11-05T07:10:43.000Z,5.31
2022-11-05T07:13:10.051Z,5.32
2022-11-05T07:15:37.779Z,5.32
2022-11-05T07:18:05.407Z,5.31
2022-11-05T07:20:34.422Z,5.34
2022-11-05T07:23:11.519Z,5.36
2022-11-05T07:25:39.224Z,5.40
2022-11-05T07:28:06.809Z,5.43
2022-11-05T07:30:35.001Z,5.46
2022-11-05T07:33:02.740Z,5.50
2022-11-05T07:35:30.203Z,5.55
2022-11-05T07:37:57.125Z,5.59
2022-11-05T07:40:26.811Z,5.65
2022-11-05T07:42:59.381Z,5.71
2022-11-05T07:45:28.749Z,5.75
2022-11-05T07:47:58.665Z,5.80
2022-11-05T07:50:28.690Z,5.84
2022-11-05T07:53:03.890Z,5.85
2022-11-05T07:55:31.022Z,5.90
2022-11-05T07:57:58.204Z,5.93
2022-11-05T08:00:26.763Z,5.96
2022-11-05T08:03:02.194Z,6.01
2022-11-05T08:05:37.258Z,6.03
2022-11-05T08:08:05.196Z,6.05
2022-11-05T08:10:34.268Z,6.08
2022-11-05T08:13:01.877Z,6.11
2022-11-05T08:15:29.277Z,6.14
2022-11-05T08:18:03.962Z,6.17
2022-11-05T08:20:31.232Z,6.22
2022-11-05T08:22:58.381Z,6.26
2022-11-05T08:25:26.116Z,6.33
2022-11-05T08:27:58.549Z,6.37
2022-11-05T08:30:26.291Z,6.42
2022-11-05T08:32:58.539Z,6.45
2022-11-05T08:35:26.830Z,6.49
2022-11-05T08:38:02.988Z,6.55
2022-11-05T08:40:34.891Z,6.62
2022-11-05T08:43:04.328Z,6.65
2022-11-05T08:45:31.588Z,6.66
2022-11-05T08:48:03.623Z,6.70
2022-11-05T08:50:31.067Z,6.73
2022-11-05T08:52:58.373Z,6.76
2022-11-05T08:55:25.882Z,6.79
2022-11-05T08:58:01.379Z,6.87
2022-11-05T09:00:31.005Z,6.91
2022-11-05T09:03:02.898Z,6.93
2022-11-05T09:05:31.954Z,7.00
2022-11-05T09:08:01.427Z,7.05
2022-11-05T09:10:29.039Z,7.09
2022-11-05T09:12:56.460Z,7.14
2022-11-05T09:15:24.702Z,7.19
2022-11-05T09:17:52.073Z,7.25
2022-11-05T09:20:19.729Z,7.29
2022-11-05T09:22:46.900Z,7.33
2022-11-05T09:25:16.280Z,7.37
2022-11-05T09:27:43.720Z,7.45
2022-11-05T09:30:12.807Z,7.52
2022-11-05T09:32:39.867Z,7.57
2022-11-05T09:35:07.781Z,7.68
2022-11-05T09:37:36.114Z,7.74
2022-11-05T09:40:03.707Z,7.85
2022-11-05T09:42:38.143Z,7.95
2022-11-05T09:45:13.779Z,8.10
2022-11-05T09:47:45.215Z,8.17
2022-11-05T09:50:19.641Z,8.21
2022-11-05T09:52:46.755Z,8.29
2022-11-05T09:55:29.325Z,8.37
2022-11-05T09:58:10.938Z,8.50
2022-11-05T10:00:38.097Z,8.58
2022-11-05T10:03:10.854Z,8.66
2022-11-05T10:05:40.522Z,8.71
2022-11-05T10:08:29.645Z,8.77
2022-11-05T10:11:04.375Z,8.93
2022-11-05T10:13:37.391Z,9.10
2022-11-05T10:16:19.259Z,9.29
2022-11-05T10:18:51.221Z,9.42
2022-11-05T10:21:37.635Z,9.51
2022-11-05T10:24:15.817Z,9.62
2022-11-05T10:26:46.885Z,9.73
2022-11-05T10:29:29.714Z,9.86
2022-11-05T10:31:58.764Z,9.91
2022-11-05T10:34:31.024Z,9.96
2022-11-05T10:36:58.123Z,9.97
2022-11-05T10:39:27.948Z,9.98
2022-11-05T10:42:31.443Z,10.00
2022-11-05T10:45:35.374Z,10.05
2022-11-05T10:48:32.502Z,10.11
2022-11-05T10:50:59.787Z,10.15
2022-11-05T10:53:33.768Z,10.18
2022-11-05T10:56:00.907Z,10.21
2022-11-05T10:58:35.083Z,10.19
2022-11-05T11:01:10.836Z,10.22
2022-11-05T11:03:45.939Z,10.21
2022-11-05T11:06:21.984Z,10.19
2022-11-05T11:08:50.632Z,10.21
2022-11-05T11:11:39.600Z,10.19
2022-11-05T11:14:12.528Z,10.18
2022-11-05T11:16:45.935Z,10.22
2022-11-05T11:19:34.052Z,10.22
2022-11-05T11:22:04.294Z,10.22
2022-11-05T11:24:41.988Z,10.23
2022-11-05T11:27:13.997Z,10.29
2022-11-05T11:29:49.178Z,10.33
2022-11-05T11:32:20.349Z,10.36
2022-11-05T11:34:52.456Z,10.37
2022-11-05T11:37:28.765Z,10.44
2022-11-05T11:40:04.592Z,10.45
2022-11-05T11:42:35.209Z,10.51
2022-11-05T11:45:15.315Z,10.59
2022-11-05T11:47:48.726Z,10.62
2022-11-05T11:50:39.975Z,10.63
2022-11-05T11:53:26.414Z,10.56
2022-11-05T11:56:07.533Z,10.54
2022-11-05T11:58:40.829Z,10.55
2022-11-05T12:01:41.845Z,10.54
2022-11-05T12:04:46.094Z,10.56
2022-11-05T12:07:31.197Z,10.58
2022-11-05T12:10:04.632Z,10.55
2022-11-05T12:13:02.398Z,10.58
2022-11-05T12:15:55.906Z,10.67
2022-11-05T12:18:47.407Z,10.76
2022-11-05T12:21:58.405Z,10.86
2022-11-05T12:24:47.432Z,11.00
2022-11-05T12:27:51.603Z,11.17
2022-11-05T12:30:21.644Z,11.24
2022-11-05T12:33:15.733Z,11.51
2022-11-05T12:36:06.297Z,11.85
2022-11-05T12:39:19.508Z,12.02
2022-11-05T12:42:14.794Z,11.97
2022-11-05T12:45:02.852Z,11.83
2022-11-05T12:47:50.083Z,11.67
2022-11-05T12:50:49.255Z,11.57
2022-11-05T12:53:53.508Z,11.48
2022-11-05T12:56:38.217Z,11.39
2022-11-05T12:59:43.890Z,11.34
2022-11-05T13:02:20.682Z,11.34
2022-11-05T13:04:55.615Z,11.33
2022-11-05T13:07:36.198Z,11.29
2022-11-05T13:10:14.988Z,11.26
2022-11-05T13:12:44.299Z,11.28
2022-11-05T13:15:32.927Z,11.33
2022-11-05T13:18:06.073Z,11.36
2022-11-05T13:20:37.838Z,11.37
2022-11-05T13:23:24.362Z,11.38
2022-11-05T13:25:56.190Z,11.40
2022-11-05T13:28:44.210Z,11.38
2022-11-05T13:31:16.331Z,11.35
2022-11-05T13:33:46.318Z,11.34
2022-11-05T13:36:49.843Z,11.37
2022-11-05T13:39:28.582Z,11.38
2022-11-05T13:42:23.254Z,11.44
2022-11-05T13:45:15.502Z,11.47
2022-11-05T13:47:54.426Z,11.48
2022-11-05T13:51:06.545Z,11.43
2022-11-05T13:53:54.573Z,11.39
2022-11-05T13:56:55.637Z,11.43
2022-11-05T13:59:59.206Z,11.42
2022-11-05T14:02:35.040Z,11.35
2022-11-05T14:05:03.395Z,11.29
2022-11-05T14:07:47.331Z,11.22
2022-11-05T14:10:24.594Z,11.18
2022-11-05T14:12:54.630Z,11.19
2022-11-05T14:15:26.386Z,11.17
2022-11-05T14:18:03.611Z,11.16
2022-11-05T14:20:30.463Z,11.20
2022-11-05T14:23:25.306Z,11.15
2022-11-05T14:25:56.469Z,11.10
2022-11-05T14:28:35.539Z,11.07
2022-11-05T14:31:41.174Z,11.04
2022-11-05T14:34:11.464Z,10.93
2022-11-05T14:36:40.747Z,10.89
2022-11-05T14:39:28.543Z,10.82
2022-11-05T14:42:03.354Z,10.76
2022-11-05T14:44:35.893Z,10.70
2022-11-05T14:47:08.050Z,10.66
2022-11-05T14:49:53.186Z,10.59
2022-11-05T14:52:20.724Z,10.57
2022-11-05T14:54:54.102Z,10.53
2022-11-05T14:57:42.689Z,10.51
2022-11-05T15:00:40.948Z,10.48
2022-11-05T15:03:29.463Z,10.43
2022-11-05T15:06:08.525Z,10.41
2022-11-05T15:08:38.775Z,10.41
2022-11-05T15:11:18.844Z,10.38
2022-11-05T15:14:19.126Z,10.35
2022-11-05T15:16:53.134Z,10.36
2022-11-05T15:19:34.983Z,10.33
2022-11-05T15:22:05.934Z,10.30
2022-11-05T15:24:35.134Z,10.29
2022-11-05T15:27:34.178Z,10.27
2022-11-05T15:30:15.883Z,10.25
2022-11-05T15:32:42.943Z,10.24
2022-11-05T15:35:29.820Z,10.21
2022-11-05T15:38:02.224Z,10.17
2022-11-05T15:40:33.668Z,10.14
2022-11-05T15:43:17.470Z,10.14
2022-11-05T15:46:05.989Z,10.08
2022-11-05T15:48:33.811Z,10.07
2022-11-05T15:51:01.429Z,10.04
2022-11-05T15:54:23.966Z,10.02
2022-11-05T15:56:52.770Z,10.00
2022-11-05T15:59:22.416Z,9.98
2022-11-05T16:01:51.355Z,9.96
2022-11-05T16:04:29.316Z,9.95
2022-11-05T16:07:09.674Z,9.93
2022-11-05T16:09:40.275Z,9.92
2022-11-05T16:12:19.616Z,9.90
2022-11-05T16:15:25.638Z,9.88
2022-11-05T16:18:00.287Z,9.85
2022-11-05T16:20:31.504Z,9.81
2022-11-05T16:23:04.161Z,9.80
2022-11-05T16:25:37.835Z,9.78
2022-11-05T16:28:26.689Z,9.79
2022-11-05T16:31:05.345Z,9.77
2022-11-05T16:33:51.153Z,9.78
2022-11-05T16:36:18.791Z,9.75
2022-11-05T16:38:45.854Z,9.74
2022-11-05T16:41:18.333Z,9.73
2022-11-05T16:43:57.062Z,9.71
2022-11-05T16:46:30.362Z,9.68
2022-11-05T16:48:58.848Z,9.67
2022-11-05T16:51:28.369Z,9.67
2022-11-05T16:53:55.384Z,9.65
2022-11-05T16:56:23.385Z,9.64
2022-11-05T16:58:50.610Z,9.64
2022-11-05T17:01:21.730Z,9.57
2022-11-05T17:03:50.329Z,9.61
2022-11-05T17:06:18.944Z,9.62
2022-11-05T17:08:46.607Z,9.58
2022-11-05T17:11:16.296Z,9.57
2022-11-05T17:13:43.696Z,9.55
2022-11-05T17:16:13.230Z,9.53
2022-11-05T17:18:41.196Z,9.52
2022-11-05T17:21:09.931Z,9.52
2022-11-05T17:23:37.443Z,9.52
2022-11-05T17:26:11.424Z,9.53
2022-11-05T17:28:39.148Z,9.53
2022-11-05T17:31:09.343Z,9.53
2022-11-05T17:33:36.288Z,9.53
2022-11-05T17:36:13.476Z,9.50
2022-11-05T17:38:40.752Z,9.51
2022-11-05T17:41:12.883Z,9.52
2022-11-05T17:43:40.117Z,9.51
2022-11-05T17:46:13.560Z,9.51
2022-11-05T17:48:41.049Z,9.52
2022-11-05T17:51:12.763Z,9.52
2022-11-05T17:53:39.728Z,9.53
2022-11-05T17:56:10.821Z,9.53
2022-11-05T17:58:38.023Z,9.54
2022-11-05T18:01:05.844Z,9.53
2022-11-05T18:03:33.193Z,9.54
2022-11-05T18:06:06.932Z,9.55
2022-11-05T18:08:34.140Z,9.55
2022-11-05T18:11:01.057Z,9.56
2022-11-05T18:13:27.975Z,9.56
2022-11-05T18:15:55.034Z,9.56
2022-11-05T18:18:22.434Z,9.54
2022-11-05T18:20:49.543Z,9.51
2022-11-05T18:23:16.565Z,9.49
2022-11-05T18:25:43.915Z,9.47
2022-11-05T18:28:11.190Z,9.45
2022-11-05T18:30:39.681Z,9.45
2022-11-05T18:33:07.259Z,9.43
2022-11-05T18:35:34.559Z,9.43
2022-11-05T18:38:01.610Z,9.40
2022-11-05T18:40:28.407Z,9.40
2022-11-05T18:42:55.414Z,9.41
2022-11-05T18:45:26.893Z,9.40
2022-11-05T18:47:56.350Z,9.40
2022-11-05T18:50:23.218Z,9.38
2022-11-05T18:52:50.033Z,9.38
2022-11-05T18:55:16.885Z,9.38
2022-11-05T18:57:43.733Z,9.38
2022-11-05T19:00:11.322Z,9.38
2022-11-05T19:02:38.534Z,9.38
2022-11-05T19:07:53.229Z,9.35
2022-11-05T19:10:20.199Z,9.36
2022-11-05T19:12:47.098Z,9.37
2022-11-05T19:15:13.949Z,9.36
2022-11-05T19:17:41.229Z,9.37
2022-11-05T19:20:09.273Z,9.38
2022-11-05T19:22:36.191Z,9.39
2022-11-05T19:25:03.755Z,9.37
2022-11-05T19:27:30.963Z,9.37
2022-11-05T19:29:57.754Z,9.36
2022-11-05T19:32:24.762Z,9.33
2022-11-05T19:34:51.616Z,9.30
2022-11-05T19:37:19.474Z,9.27
2022-11-05T19:39:46.491Z,9.26
2022-11-05T19:42:13.422Z,9.24
2022-11-05T19:44:41.083Z,9.20
2022-11-05T19:47:08.202Z,9.19
2022-11-05T19:49:34.974Z,9.20
2022-11-05T19:52:01.976Z,9.22
2022-11-05T19:54:29.024Z,9.20
2022-11-05T19:56:56.095Z,9.22
2022-11-05T19:59:22.928Z,9.24
2022-11-05T20:01:50.244Z,9.23
2022-11-05T20:04:17.123Z,9.26
2022-11-05T20:06:43.956Z,9.27
2022-11-05T20:09:22.658Z,9.29
2022-11-05T20:11:54.775Z,9.28
2022-11-05T20:14:23.224Z,9.28
2022-11-05T20:16:50.513Z,9.27
2022-11-05T20:19:19.894Z,9.25
2022-11-05T20:21:47.646Z,9.23
2022-11-05T20:24:22.469Z,9.23
2022-11-05T20:26:51.881Z,9.20
2022-11-05T20:29:18.862Z,9.21
2022-11-05T20:31:45.800Z,9.19
2022-11-05T20:34:12.736Z,9.18
2022-11-05T20:36:40.120Z,9.20
2022-11-05T20:39:07.415Z,9.20
2022-11-05T20:41:34.335Z,9.20
2022-11-05T20:44:01.646Z,9.20
2022-11-05T20:46:28.686Z,9.18
2022-11-05T20:48:56.128Z,9.20
2022-11-05T20:51:24.687Z,9.19
2022-11-05T20:54:00.252Z,9.18
2022-11-05T20:56:29.855Z,9.16
2022-11-05T20:58:58.924Z,9.14
2022-11-05T21:01:27.848Z,9.13
2022-11-05T21:03:55.213Z,9.09
2022-11-05T21:06:22.736Z,9.06
2022-11-05T21:08:51.312Z,9.02
2022-11-05T21:11:19.956Z,8.99
2022-11-05T21:13:47.190Z,8.96
2022-11-05T21:16:18.512Z,8.93
2022-11-05T21:18:46.817Z,8.92
2022-11-05T21:21:17.767Z,8.91
2022-11-05T21:23:44.678Z,8.87
2022-11-05T21:26:14.007Z,8.86
2022-11-05T21:28:42.052Z,8.86
2022-11-05T21:31:09.381Z,8.84
2022-11-05T21:33:36.738Z,8.80
2022-11-05T21:36:12.712Z,8.80
2022-11-05T21:38:40.717Z,8.78
2022-11-05T21:41:08.828Z,8.80
2022-11-05T21:43:38.002Z,8.84
2022-11-05T21:46:05.256Z,8.86
2022-11-05T21:48:32.898Z,8.88
2022-11-05T21:51:18.641Z,8.89
2022-11-05T21:54:04.285Z,8.89
2022-11-05T21:56:50.873Z,8.91
2022-11-05T21:59:41.549Z,8.90
2022-11-05T22:02:11.467Z,8.91
2022-11-05T22:04:43.927Z,8.92
2022-11-05T22:07:15.463Z,8.93
2022-11-05T22:09:42.353Z,8.92
2022-11-05T22:12:09.701Z,8.94
2022-11-05T22:14:36.800Z,8.94
2022-11-05T22:17:04.149Z,8.94
2022-11-05T22:19:31.757Z,8.94
2022-11-05T22:21:58.797Z,8.94
2022-11-05T22:24:28.259Z,8.94
2022-11-05T22:26:55.222Z,8.92
2022-11-05T22:29:22.137Z,8.93
2022-11-05T22:31:49.183Z,8.94
2022-11-05T22:34:16.080Z,8.91
2022-11-05T22:36:43.102Z,8.89
2022-11-05T22:39:12.101Z,8.90
2022-11-05T22:41:39.525Z,8.92
2022-11-05T22:44:06.963Z,8.91
2022-11-05T22:46:34.246Z,8.93
2022-11-05T22:49:01.299Z,8.95
2022-11-05T22:51:33.825Z,8.95
2022-11-05T22:54:02.247Z,8.94
2022-11-05T22:56:32.234Z,8.96
2022-11-05T22:59:00.098Z,8.94
2022-11-05T23:01:27.880Z,8.94
2022-11-05T23:03:56.397Z,8.95
2022-11-05T23:06:44.112Z,8.96
2022-11-05T23:09:35.607Z,8.97
2022-11-05T23:12:04.789Z,8.99
2022-11-05T23:14:31.690Z,8.98
2022-11-05T23:17:17.007Z,8.99
2022-11-05T23:20:02.618Z,9.00
2022-11-05T23:22:49.925Z,8.99
2022-11-05T23:25:20.253Z,8.99
2022-11-05T23:27:49.426Z,8.96
2022-11-05T23:30:21.958Z,8.95
2022-11-05T23:32:49.543Z,8.93
2022-11-05T23:35:17.339Z,8.90
2022-11-05T23:38:02.737Z,8.88
2022-11-05T23:40:52.334Z,8.88
2022-11-05T23:43:38.052Z,8.86
2022-11-05T23:46:23.756Z,8.83
2022-11-05T23:48:50.868Z,8.82
2022-11-05T23:51:18.106Z,8.78
2022-11-05T23:53:44.953Z,8.78
2022-11-05T23:56:14.729Z,8.79
2022-11-05T23:58:42.535Z,8.79
